Time;durP1;ratioP1;P1;durP2;ratioP2;P2;SDS_P1;SDS_P2;PMS_P1;PMS_P2;Temp;Humidity;BMP_temperature;BMP_pressure;BME280_temperature;BME280_humidity;BME280_pressure;Samples;Min_cycle;Max_cycle;Signal;HPM_P1;HPM_P2
2022/09/05 00:02:46;;;;;;;6.32;1.60;;;19.00;99.90;;;;;;5033928;28;20026;-79
2022/09/05 00:05:36;;;;;;;4.35;1.45;;;18.90;99.90;;;;;;5022005;28;20037;-79
2022/09/05 00:08:36;;;;;;;4.65;1.58;;;18.90;99.90;;;;;;5013170;28;20033;-79
2022/09/05 00:11:15;;;;;;;3.55;1.60;;;18.90;99.90;;;;;;5012960;28;20053;-80
2022/09/05 00:13:56;;;;;;;2.40;1.50;;;18.80;99.90;;;;;;4997620;28;20054;-79
2022/09/05 00:16:42;;;;;;;6.28;1.60;;;18.70;99.90;;;;;;4998455;28;20057;-79
2022/09/05 00:19:10;;;;;;;5.47;2.13;;;18.70;99.90;;;;;;5001731;28;20105;-79
2022/09/05 00:21:54;;;;;;;4.70;1.92;;;18.70;99.90;;;;;;4994986;28;20061;-79
2022/09/05 00:24:46;;;;;;;5.20;1.80;;;18.60;99.90;;;;;;4994294;28;20479;-79
2022/09/05 00:27:25;;;;;;;4.65;1.60;;;18.60;99.90;;;;;;4993532;28;20026;-82
2022/09/05 00:30:16;;;;;;;2.20;1.50;;;18.70;99.90;;;;;;5010107;28;20073;-82
2022/09/05 00:32:54;;;;;;;1.80;1.63;;;18.60;99.90;;;;;;4999122;28;20041;-82
2022/09/05 00:35:32;;;;;;;3.83;1.67;;;18.60;99.90;;;;;;5014026;28;20026;-81
2022/09/05 00:38:08;;;;;;;3.05;1.52;;;18.60;99.90;;;;;;5012514;28;20058;-82
2022/09/05 00:40:53;;;;;;;3.55;1.50;;;18.60;99.90;;;;;;4993917;28;20034;-79
2022/09/05 00:43:28;;;;;;;4.30;1.85;;;18.60;99.90;;;;;;4993315;28;20089;-79
2022/09/05 00:46:12;;;;;;;2.33;1.60;;;18.60;99.90;;;;;;4992570;28;20031;-79
2022/09/05 00:48:49;;;;;;;2.95;1.63;;;18.60;99.90;;;;;;4993711;28;20049;-79
2022/09/05 00:51:21;;;;;;;3.15;1.52;;;18.60;99.90;;;;;;4994187;28;20034;-79
2022/09/05 00:54:08;;;;;;;4.72;1.80;;;18.50;99.90;;;;;;4993871;28;20034;-79
2022/09/05 00:56:46;;;;;;;3.47;1.85;;;18.50;99.90;;;;;;5005573;28;20027;-79
2022/09/05 00:59:39;;;;;;;3.13;1.38;;;18.50;99.90;;;;;;4992469;28;20034;-78
2022/09/05 01:02:29;;;;;;;2.13;1.55;;;18.50;99.90;;;;;;4992481;28;20081;-78
2022/09/05 01:05:24;;;;;;;2.83;1.55;;;18.40;99.90;;;;;;5002942;28;20045;-78
2022/09/05 01:08:38;;;;;;;4.45;1.60;;;18.50;99.90;;;;;;4996836;28;20041;-80
2022/09/05 01:11:26;;;;;;;5.50;1.52;;;18.50;99.90;;;;;;4999988;28;20042;-78
2022/09/05 01:14:23;;;;;;;3.38;1.55;;;18.40;99.90;;;;;;4993207;28;20033;-79
2022/09/05 01:17:28;;;;;;;3.45;1.90;;;18.40;99.90;;;;;;4993694;28;20059;-79
2022/09/05 01:20:07;;;;;;;1.73;1.60;;;18.30;99.90;;;;;;4993470;28;20134;-79
2022/09/05 01:22:47;;;;;;;3.10;1.90;;;18.30;99.90;;;;;;4999679;28;20383;-79
2022/09/05 01:25:48;;;;;;;3.20;1.95;;;18.20;99.90;;;;;;5012970;28;20030;-79
2022/09/05 01:28:30;;;;;;;5.78;1.85;;;18.20;99.90;;;;;;4992168;28;20035;-79
2022/09/05 01:31:08;;;;;;;4.22;1.48;;;18.20;99.90;;;;;;4992138;28;20026;-79
2022/09/05 01:33:42;;;;;;;3.80;1.60;;;18.30;99.90;;;;;;5007762;28;20382;-79
2022/09/05 01:36:19;;;;;;;6.65;1.70;;;18.20;99.90;;;;;;5013042;28;20022;-79
2022/09/05 01:38:56;;;;;;;5.30;2.10;;;18.30;99.90;;;;;;5013518;28;20026;-79
2022/09/05 01:41:53;;;;;;;1.88;1.52;;;18.20;99.90;;;;;;5013464;28;20033;-78
2022/09/05 01:44:18;;;;;;;5.35;1.55;;;18.20;99.90;;;;;;5012074;28;20041;-78
2022/09/05 01:47:15;;;;;;;1.83;1.63;;;18.20;99.90;;;;;;5005488;28;20027;-78
2022/09/05 01:49:44;;;;;;;2.58;1.63;;;18.20;99.90;;;;;;4993536;28;20041;-78
2022/09/05 01:52:18;;;;;;;2.33;2.00;;;18.10;99.90;;;;;;4995009;28;20017;-78
2022/09/05 01:54:53;;;;;;;3.70;2.10;;;18.10;99.90;;;;;;5012141;28;20025;-78
2022/09/05 01:57:32;;;;;;;2.03;1.70;;;18.10;99.90;;;;;;5003092;28;20048;-78
2022/09/05 02:00:09;;;;;;;3.10;1.90;;;18.10;99.90;;;;;;5010346;28;20034;-78
2022/09/05 02:03:07;;;;;;;2.72;1.90;;;18.10;99.90;;;;;;5000030;28;20026;-78
2022/09/05 02:05:32;;;;;;;2.83;1.90;;;18.10;99.90;;;;;;5016689;28;20426;-77
2022/09/05 02:08:07;;;;;;;1.92;1.70;;;18.10;99.90;;;;;;5016386;28;20021;-76
2022/09/05 02:10:58;;;;;;;3.30;1.90;;;18.10;99.90;;;;;;5015444;28;20036;-77
2022/09/05 02:13:32;;;;;;;2.75;2.10;;;18.10;99.90;;;;;;5002257;28;20057;-77
2022/09/05 02:16:19;;;;;;;4.25;2.00;;;18.00;99.90;;;;;;4996013;28;20077;-79
2022/09/05 02:18:51;;;;;;;3.83;2.03;;;17.90;99.90;;;;;;5005218;28;20053;-80
2022/09/05 02:21:32;;;;;;;3.40;1.80;;;17.90;99.90;;;;;;5003347;28;20490;-78
2022/09/05 02:24:03;;;;;;;2.63;2.10;;;17.90;99.90;;;;;;5012752;28;20099;-79
2022/09/05 02:27:00;;;;;;;2.80;1.88;;;17.90;99.90;;;;;;5015168;28;20033;-79
2022/09/05 02:29:45;;;;;;;2.63;2.00;;;17.90;99.90;;;;;;4993004;28;20037;-79
2022/09/05 02:32:35;;;;;;;6.15;2.20;;;17.90;99.90;;;;;;4994602;28;20048;-79
2022/09/05 02:35:24;;;;;;;4.50;2.35;;;17.80;99.90;;;;;;5005713;28;20026;-79
2022/09/05 02:37:58;;;;;;;4.28;2.10;;;17.80;99.90;;;;;;5008012;28;20113;-79
2022/09/05 02:40:36;;;;;;;3.35;2.00;;;17.80;99.90;;;;;;4996399;28;20103;-79
2022/09/05 02:43:08;;;;;;;4.78;2.20;;;17.80;99.90;;;;;;4994811;28;20037;-79
2022/09/05 02:45:52;;;;;;;4.63;2.33;;;17.80;99.90;;;;;;5011017;28;20026;-79
2022/09/05 02:48:52;;;;;;;6.38;2.28;;;17.80;99.90;;;;;;4995138;28;20042;-78
2022/09/05 02:51:26;;;;;;;3.08;2.53;;;17.90;99.90;;;;;;4983890;28;20045;-79
2022/09/05 02:53:57;;;;;;;3.30;1.95;;;17.80;99.90;;;;;;4995874;28;20545;-81
2022/09/05 02:56:33;;;;;;;4.18;2.08;;;17.80;99.90;;;;;;5000701;28;20475;-79
2022/09/05 02:59:22;;;;;;;3.30;1.90;;;17.90;99.90;;;;;;5014197;28;20057;-79
2022/09/05 03:02:17;;;;;;;2.50;1.73;;;17.90;99.90;;;;;;5014772;28;20084;-80
2022/09/05 03:04:52;;;;;;;4.93;2.03;;;17.80;99.90;;;;;;5005124;28;20476;-78
2022/09/05 03:08:00;;;;;;;4.95;2.33;;;17.80;99.90;;;;;;4994911;28;20034;-78
2022/09/05 03:10:40;;;;;;;3.22;2.17;;;17.80;99.90;;;;;;4994526;28;20034;-79
2022/09/05 03:13:17;;;;;;;5.70;2.22;;;17.70;99.90;;;;;;4995767;28;20371;-79
2022/09/05 03:16:34;;;;;;;3.83;2.10;;;17.70;99.90;;;;;;4995403;28;20050;-80
2022/09/05 03:19:11;;;;;;;4.68;2.50;;;17.70;99.90;;;;;;4938474;29;20473;-79
2022/09/05 03:22:09;;;;;;;8.82;5.07;;;17.70;99.90;;;;;;4995300;28;20038;-79
2022/09/05 03:24:56;;;;;;;3.60;2.20;;;17.70;99.90;;;;;;4994790;28;20034;-79
2022/09/05 03:27:47;;;;;;;3.60;2.20;;;17.70;99.90;;;;;;4994768;28;20124;-78
2022/09/05 03:30:23;;;;;;;2.38;1.73;;;17.70;99.90;;;;;;4993997;28;20026;-78
2022/09/05 03:33:23;;;;;;;3.42;1.95;;;17.70;99.90;;;;;;4994548;28;20431;-82
2022/09/05 03:36:08;;;;;;;8.93;2.10;;;17.60;99.90;;;;;;5009975;28;20037;-81
2022/09/05 03:38:54;;;;;;;2.78;2.20;;;17.60;99.90;;;;;;5001377;28;20026;-78
2022/09/05 03:41:46;;;;;;;3.55;2.00;;;17.60;99.90;;;;;;5014147;28;20026;-78
2022/09/05 03:44:49;;;;;;;6.82;2.15;;;17.60;99.90;;;;;;5013479;28;20128;-79
2022/09/05 03:47:45;;;;;;;3.83;2.10;;;17.60;99.90;;;;;;5001450;28;20039;-79
2022/09/05 03:50:16;;;;;;;3.88;2.05;;;17.60;99.90;;;;;;4993685;28;20644;-78
2022/09/05 03:53:19;;;;;;;3.57;2.27;;;17.60;99.90;;;;;;4994232;28;20081;-78
2022/09/05 03:56:12;;;;;;;2.95;2.10;;;17.50;99.90;;;;;;4994350;28;20033;-77
2022/09/05 03:59:15;;;;;;;3.67;1.90;;;17.50;99.90;;;;;;5012675;28;20057;-78
2022/09/05 04:01:47;;;;;;;2.55;2.00;;;17.50;99.90;;;;;;4997885;28;20035;-77
2022/09/05 04:04:24;;;;;;;7.13;2.13;;;17.50;99.90;;;;;;4992648;28;20031;-77
2022/09/05 04:06:58;;;;;;;4.78;2.22;;;17.40;99.90;;;;;;4993790;28;20419;-80
2022/09/05 04:09:37;;;;;;;3.67;1.90;;;17.40;99.90;;;;;;5008011;28;20394;-77
2022/09/05 04:12:28;;;;;;;4.65;2.17;;;17.40;99.90;;;;;;4993343;28;20042;-79
2022/09/05 04:15:00;;;;;;;2.43;1.90;;;17.40;99.90;;;;;;4994554;28;20065;-79
2022/09/05 04:17:55;;;;;;;3.45;2.30;;;17.50;99.90;;;;;;4993962;28;20041;-79
2022/09/05 04:20:42;;;;;;;3.80;2.15;;;17.50;99.90;;;;;;4992528;28;20038;-77
2022/09/05 04:23:23;;;;;;;2.90;2.13;;;17.40;99.90;;;;;;4992885;28;20731;-78
2022/09/05 04:26:09;;;;;;;4.90;2.20;;;17.40;99.90;;;;;;4994200;28;20037;-80
2022/09/05 04:28:51;;;;;;;4.57;2.25;;;17.40;99.90;;;;;;4993486;28;20027;-78
2022/09/05 04:31:55;;;;;;;4.75;2.60;;;17.40;99.90;;;;;;4993730;28;20109;-78
2022/09/05 04:34:48;;;;;;;5.75;2.10;;;17.40;99.90;;;;;;4993918;28;20053;-78
2022/09/05 04:37:53;;;;;;;4.32;2.20;;;17.40;99.90;;;;;;4994610;28;20114;-79
2022/09/05 04:40:57;;;;;;;4.25;2.60;;;17.30;99.90;;;;;;5009979;28;20027;-78
2022/09/05 04:43:47;;;;;;;4.78;2.33;;;17.20;99.90;;;;;;4956755;28;20034;-79
2022/09/05 04:46:29;;;;;;;4.25;2.10;;;17.00;99.90;;;;;;4991307;28;20043;-78
2022/09/05 04:49:05;;;;;;;4.50;2.30;;;17.10;99.90;;;;;;5009682;28;20483;-79
2022/09/05 04:51:55;;;;;;;3.50;2.10;;;17.10;99.90;;;;;;4993601;28;20599;-78
2022/09/05 04:54:35;;;;;;;3.22;2.25;;;17.10;99.90;;;;;;4993525;28;20030;-78
2022/09/05 04:57:07;;;;;;;3.53;2.25;;;17.10;99.90;;;;;;4992887;28;20034;-78
2022/09/05 05:00:15;;;;;;;5.50;2.30;;;17.10;99.90;;;;;;4993501;28;20527;-78
2022/09/05 05:02:46;;;;;;;3.80;2.13;;;17.20;99.90;;;;;;5000672;28;20038;-78
2022/09/05 05:05:28;;;;;;;4.07;2.30;;;17.20;99.90;;;;;;4993834;28;20084;-78
2022/09/05 05:08:04;;;;;;;4.00;2.20;;;17.30;99.90;;;;;;4994125;28;20033;-80
2022/09/05 05:10:41;;;;;;;4.90;2.15;;;17.30;99.90;;;;;;4994204;28;20106;-78
2022/09/05 05:13:30;;;;;;;4.15;2.25;;;17.40;99.90;;;;;;4993731;28;20035;-78
2022/09/05 05:16:02;;;;;;;6.07;2.35;;;17.50;99.90;;;;;;5002036;28;20046;-79
2022/09/05 05:18:33;;;;;;;3.95;2.35;;;17.50;99.90;;;;;;4993031;28;20030;-78
2022/09/05 05:21:02;;;;;;;;;;;17.50;99.90;;;;;;4992833;28;20038;-79
2022/09/05 05:23:29;;;;;;;3.97;2.28;;;17.50;99.90;;;;;;5009257;28;19964;-78
2022/09/05 05:25:58;;;;;;;3.30;2.38;;;17.50;99.90;;;;;;4992265;28;20121;-80
2022/09/05 05:28:54;;;;;;;3.30;2.00;;;17.50;99.90;;;;;;4992657;28;20042;-78
2022/09/05 05:31:34;;;;;;;4.85;2.08;;;17.50;99.90;;;;;;4992383;28;20030;-77
2022/09/05 05:34:02;;;;;;;3.67;1.95;;;17.60;99.90;;;;;;4992187;28;20494;-78
2022/09/05 05:36:38;;;;;;;4.20;2.40;;;17.60;99.90;;;;;;4992855;28;20342;-79
2022/09/05 05:39:11;;;;;;;4.68;2.20;;;17.60;99.90;;;;;;4994284;28;20026;-79
2022/09/05 05:41:49;;;;;;;3.00;2.10;;;17.70;99.90;;;;;;5012810;28;20026;-79
2022/09/05 05:44:25;;;;;;;4.38;2.70;;;17.70;99.90;;;;;;4996672;28;20104;-79
2022/09/05 05:47:07;;;;;;;7.63;2.42;;;17.60;99.90;;;;;;4997676;28;20041;-79
2022/09/05 05:49:52;;;;;;;5.07;3.28;;;17.70;99.90;;;;;;4996559;28;20092;-79
2022/09/05 05:52:48;;;;;;;7.25;2.65;;;17.70;99.90;;;;;;4996209;28;20033;-79
2022/09/05 05:55:51;;;;;;;4.72;2.10;;;17.80;99.90;;;;;;4996313;28;20042;-78
2022/09/05 05:58:37;;;;;;;3.85;2.38;;;17.90;99.90;;;;;;4996134;28;20536;-79
2022/09/05 06:01:30;;;;;;;2.78;1.98;;;17.90;99.90;;;;;;4997166;28;20061;-78
2022/09/05 06:04:08;;;;;;;4.97;2.05;;;17.90;99.90;;;;;;4996575;28;20026;-80
2022/09/05 06:07:04;;;;;;;2.97;2.00;;;18.00;99.90;;;;;;4996867;28;20035;-77
2022/09/05 06:10:18;;;;;;;4.07;2.08;;;18.00;99.90;;;;;;4996682;28;20022;-78
2022/09/05 06:13:10;;;;;;;4.97;2.35;;;18.10;99.90;;;;;;5008087;28;20124;-77
2022/09/05 06:15:54;;;;;;;4.40;2.22;;;18.10;99.90;;;;;;4995268;28;20054;-77
2022/09/05 06:18:26;;;;;;;3.55;2.03;;;18.10;99.90;;;;;;4994593;28;20037;-77
2022/09/05 06:21:10;;;;;;;5.43;2.22;;;18.10;99.90;;;;;;4994940;28;20077;-77
2022/09/05 06:24:00;;;;;;;2.47;2.03;;;18.20;99.90;;;;;;4996399;28;20030;-78
2022/09/05 06:27:03;;;;;;;2.75;2.13;;;18.20;99.90;;;;;;4995432;28;20031;-78
2022/09/05 06:29:54;;;;;;;3.28;1.95;;;18.20;99.90;;;;;;4995946;28;20038;-77
2022/09/05 06:32:41;;;;;;;7.65;2.30;;;18.30;99.90;;;;;;4994490;28;20053;-79
2022/09/05 06:35:36;;;;;;;3.38;1.95;;;18.30;99.90;;;;;;4994273;28;20077;-77
2022/09/05 06:38:41;;;;;;;5.93;2.55;;;18.20;99.90;;;;;;4991111;28;20117;-77
2022/09/05 06:41:40;;;;;;;2.95;2.20;;;18.20;99.90;;;;;;4995817;28;20065;-77
2022/09/05 06:44:13;;;;;;;3.72;2.00;;;18.20;99.90;;;;;;4995203;28;20042;-77
2022/09/05 06:46:42;;;;;;;3.85;2.00;;;18.20;99.90;;;;;;4995279;28;20125;-77
2022/09/05 06:49:15;;;;;;;4.72;2.50;;;18.20;99.90;;;;;;4994058;28;20030;-78
2022/09/05 06:52:18;;;;;;;3.88;2.50;;;18.20;99.90;;;;;;5002165;28;20415;-78
2022/09/05 06:55:02;;;;;;;4.85;2.10;;;18.20;99.90;;;;;;5015580;28;20486;-77
2022/09/05 06:58:16;;;;;;;3.08;1.90;;;18.20;99.90;;;;;;5014322;28;20371;-77
2022/09/05 07:00:47;;;;;;;4.25;2.10;;;18.20;99.90;;;;;;5015674;28;20063;-77
2022/09/05 07:03:47;;;;;;;3.17;2.15;;;18.30;99.90;;;;;;5013903;28;20030;-78
2022/09/05 07:06:30;;;;;;;3.75;2.17;;;18.40;99.90;;;;;;5013886;28;20546;-78
2022/09/05 07:09:22;;;;;;;6.80;2.17;;;18.40;99.90;;;;;;5016148;28;20022;-77
2022/09/05 07:12:17;;;;;;;3.63;2.33;;;18.50;99.90;;;;;;5015591;28;20030;-77
2022/09/05 07:14:55;;;;;;;3.28;2.17;;;18.50;99.90;;;;;;5011968;28;20046;-77
2022/09/05 07:17:40;;;;;;;4.68;2.28;;;18.50;99.90;;;;;;5013449;28;20041;-76
2022/09/05 07:20:18;;;;;;;3.83;2.25;;;18.40;99.90;;;;;;5014079;28;20054;-77
2022/09/05 07:23:05;;;;;;;4.50;2.30;;;18.50;99.90;;;;;;5014657;28;20479;-77
2022/09/05 07:25:32;;;;;;;5.22;2.25;;;18.60;99.90;;;;;;5015661;28;20034;-77
2022/09/05 07:28:09;;;;;;;3.38;2.13;;;18.60;99.90;;;;;;5015573;28;20494;-77
2022/09/05 07:30:39;;;;;;;2.70;2.20;;;18.70;99.90;;;;;;5014201;28;20022;-77
2022/09/05 07:33:06;;;;;;;2.72;2.30;;;18.70;99.90;;;;;;5014394;28;20030;-78
2022/09/05 07:35:34;;;;;;;4.30;2.17;;;18.70;99.90;;;;;;5015029;28;20566;-78
2022/09/05 07:38:08;;;;;;;5.13;2.28;;;18.60;99.90;;;;;;5013159;28;20026;-78
2022/09/05 07:40:38;;;;;;;2.70;2.17;;;18.60;99.90;;;;;;5013180;28;20072;-76
2022/09/05 07:43:15;;;;;;;2.97;2.25;;;18.60;99.90;;;;;;5011360;28;20036;-78
2022/09/05 07:46:22;;;;;;;3.42;2.08;;;18.60;99.90;;;;;;5013838;28;20117;-78
2022/09/05 07:48:59;;;;;;;2.45;1.88;;;18.60;99.90;;;;;;5004062;28;20038;-78
2022/09/05 07:51:27;;;;;;;3.35;1.90;;;18.60;99.90;;;;;;5007820;28;20022;-79
2022/09/05 07:53:57;;;;;;;2.30;2.03;;;18.60;99.90;;;;;;5012980;28;20033;-78
2022/09/05 07:56:50;;;;;;;6.82;2.80;;;18.50;99.90;;;;;;5013051;28;20033;-79
2022/09/05 07:59:16;;;;;;;3.67;2.50;;;18.60;99.90;;;;;;5013304;28;20034;-79
2022/09/05 08:01:46;;;;;;;4.38;2.33;;;18.60;99.90;;;;;;5012215;28;20041;-79
2022/09/05 08:04:31;;;;;;;4.70;3.10;;;18.60;99.90;;;;;;5013438;28;20022;-77
2022/09/05 08:07:05;;;;;;;5.88;2.65;;;18.60;99.90;;;;;;5014391;28;20030;-77
2022/09/05 08:09:35;;;;;;;4.18;2.65;;;18.70;99.90;;;;;;5014029;28;20061;-78
2022/09/05 08:12:11;;;;;;;6.63;2.85;;;18.70;99.90;;;;;;5003473;28;20044;-81
2022/09/05 08:15:00;;;;;;;6.57;2.60;;;18.70;99.90;;;;;;5008104;28;20463;-77
2022/09/05 08:17:26;;;;;;;4.53;2.40;;;18.80;99.90;;;;;;5009776;28;20081;-77
2022/09/05 08:20:22;;;;;;;5.20;2.50;;;18.80;99.90;;;;;;4994670;28;20464;-77
2022/09/05 08:23:26;;;;;;;5.20;3.05;;;18.90;99.90;;;;;;5009919;28;20034;-77
2022/09/05 08:26:02;;;;;;;5.38;2.97;;;18.90;99.90;;;;;;5015784;28;20094;-77
2022/09/05 08:28:44;;;;;;;4.90;2.83;;;18.90;99.90;;;;;;5012549;28;20041;-77
2022/09/05 08:31:33;;;;;;;;;;;19.00;99.90;;;;;;5012284;28;20057;-78
2022/09/05 08:34:01;;;;;;;4.13;2.50;;;19.00;99.90;;;;;;5013369;28;19909;-76
2022/09/05 08:36:42;;;;;;;4.78;2.72;;;19.00;99.90;;;;;;5012561;28;20126;-78
2022/09/05 08:39:10;;;;;;;7.45;2.90;;;19.10;99.90;;;;;;5012275;28;20479;-80
2022/09/05 08:41:54;;;;;;;5.97;3.10;;;19.10;99.90;;;;;;5012559;28;20030;-80
2022/09/05 08:45:05;;;;;;;4.10;2.97;;;19.20;99.90;;;;;;5012887;28;20034;-78
2022/09/05 08:47:47;;;;;;;7.15;2.92;;;19.20;99.90;;;;;;4974659;28;20038;-79
2022/09/05 08:50:54;;;;;;;6.85;3.15;;;19.20;99.90;;;;;;4993069;28;20033;-80
2022/09/05 08:53:43;;;;;;;6.53;3.15;;;19.30;99.90;;;;;;4975160;28;20120;-77
2022/09/05 08:56:33;;;;;;;5.75;3.08;;;19.30;99.90;;;;;;5002105;28;20418;-79
2022/09/05 08:59:13;;;;;;;8.48;2.83;;;19.40;99.90;;;;;;5012099;28;20065;-79
2022/09/05 09:02:03;;;;;;;7.32;2.85;;;19.50;99.90;;;;;;5013167;28;20034;-79
2022/09/05 09:05:06;;;;;;;6.68;2.90;;;19.60;99.90;;;;;;5011473;28;20033;-78
2022/09/05 09:07:42;;;;;;;6.28;2.80;;;19.70;99.90;;;;;;5011912;28;20076;-79
2022/09/05 09:10:13;;;;;;;4.68;2.63;;;19.70;99.90;;;;;;5012956;28;20026;-82
2022/09/05 09:12:44;;;;;;;7.18;3.22;;;19.80;99.90;;;;;;5013861;28;20034;-78
2022/09/05 09:15:25;;;;;;;7.03;3.00;;;19.90;99.90;;;;;;5016433;28;20054;-80
2022/09/05 09:17:52;;;;;;;5.65;3.22;;;19.90;99.90;;;;;;5016359;28;20095;-76
2022/09/05 09:20:35;;;;;;;4.70;2.70;;;19.90;99.90;;;;;;5015582;28;20093;-77
2022/09/05 09:23:05;;;;;;;8.25;3.10;;;20.00;99.90;;;;;;5017081;28;20113;-79
2022/09/05 09:25:53;;;;;;;5.35;2.75;;;20.00;99.90;;;;;;5015736;28;20483;-79
2022/09/05 09:29:02;;;;;;;6.78;3.10;;;20.10;99.90;;;;;;5015370;28;20038;-78
2022/09/05 09:32:01;;;;;;;6.65;3.28;;;20.20;99.90;;;;;;5016200;28;20033;-77
2022/09/05 09:34:31;;;;;;;4.15;3.10;;;20.20;99.90;;;;;;5016486;28;20022;-77
2022/09/05 09:37:07;;;;;;;4.82;2.60;;;20.30;99.90;;;;;;5016051;28;20026;-77
2022/09/05 09:39:50;;;;;;;3.08;2.17;;;20.50;99.90;;;;;;5016545;28;20071;-78
2022/09/05 09:42:31;;;;;;;9.27;3.05;;;20.60;99.90;;;;;;5016555;28;20026;-77
2022/09/05 09:45:08;;;;;;;4.68;3.13;;;20.70;99.90;;;;;;5016517;28;20474;-79
2022/09/05 09:48:01;;;;;;;3.65;2.40;;;20.70;99.90;;;;;;5004400;28;20060;-78
2022/09/05 09:50:57;;;;;;;3.60;2.63;;;20.80;99.90;;;;;;5009885;28;20022;-79
2022/09/05 09:53:44;;;;;;;5.10;2.42;;;20.90;99.90;;;;;;5014666;28;20030;-78
2022/09/05 09:56:45;;;;;;;4.10;2.10;;;20.90;99.90;;;;;;5011045;28;20030;-79
2022/09/05 09:59:16;;;;;;;5.03;1.88;;;21.00;99.90;;;;;;5014160;28;20026;-81
2022/09/05 10:01:53;;;;;;;;;;;21.10;99.90;;;;;;5016059;28;20467;-78
2022/09/05 10:04:42;;;;;;;3.58;2.08;;;21.20;99.90;;;;;;5015692;28;19920;-78
2022/09/05 10:07:27;;;;;;;5.75;2.20;;;21.40;99.90;;;;;;5014544;28;20437;-79
2022/09/05 10:10:05;;;;;;;4.35;1.92;;;21.40;99.90;;;;;;5014801;28;20034;-77
2022/09/05 10:13:04;;;;;;;3.92;2.05;;;21.40;99.90;;;;;;5013563;28;20026;-79
2022/09/05 10:15:56;;;;;;;2.42;1.88;;;21.50;99.90;;;;;;5014663;28;20042;-78
2022/09/05 10:18:24;;;;;;;2.72;1.90;;;21.50;99.90;;;;;;4985314;28;20049;-77
2022/09/05 10:20:56;;;;;;;3.50;2.20;;;21.50;99.90;;;;;;5014288;28;20030;-78
2022/09/05 10:23:46;;;;;;;2.60;1.92;;;21.40;99.90;;;;;;5013937;28;20116;-78
2022/09/05 10:26:31;;;;;;;4.55;1.65;;;21.50;99.90;;;;;;5014313;28;20033;-78
2022/09/05 10:29:12;;;;;;;2.25;1.90;;;21.70;99.90;;;;;;5014841;28;20037;-78
2022/09/05 10:31:47;;;;;;;5.63;2.30;;;21.90;99.90;;;;;;5014463;28;20054;-78
2022/09/05 10:34:14;;;;;;;2.67;1.85;;;22.00;99.90;;;;;;5013288;28;20471;-79
2022/09/05 10:36:49;;;;;;;4.38;1.95;;;22.10;99.90;;;;;;5014302;28;20481;-78
2022/09/05 10:39:24;;;;;;;4.10;1.85;;;22.10;99.90;;;;;;5014470;28;20411;-77
2022/09/05 10:41:54;;;;;;;2.35;1.90;;;22.20;99.90;;;;;;5014604;28;20034;-78
2022/09/05 10:44:40;;;;;;;4.60;1.90;;;22.30;99.90;;;;;;5014646;28;20042;-78
2022/09/05 10:47:40;;;;;;;3.60;1.60;;;22.40;99.90;;;;;;5015003;28;20064;-79
2022/09/05 10:50:27;;;;;;;3.65;2.00;;;22.30;99.90;;;;;;5015525;28;20036;-79
2022/09/05 10:53:21;;;;;;;2.55;1.80;;;22.20;99.90;;;;;;5014869;28;20030;-79
2022/09/05 10:55:50;;;;;;;3.38;1.77;;;22.30;99.90;;;;;;5015811;28;20045;-79
2022/09/05 10:58:42;;;;;;;1.95;1.75;;;22.30;99.90;;;;;;5015189;28;20029;-79
2022/09/05 11:01:28;;;;;;;2.35;2.00;;;22.40;99.90;;;;;;5014449;28;20026;-79
2022/09/05 11:04:05;;;;;;;3.60;2.20;;;22.40;99.90;;;;;;5013901;28;20030;-78
2022/09/05 11:07:07;;;;;;;3.42;2.20;;;22.50;99.90;;;;;;5000178;28;20436;-80
2022/09/05 11:09:48;;;;;;;2.63;1.60;;;22.60;99.90;;;;;;5010054;28;20022;-85
2022/09/05 11:12:28;;;;;;;3.05;1.65;;;22.60;99.90;;;;;;5007377;28;20030;-80
2022/09/05 11:15:20;;;;;;;4.55;1.98;;;22.60;99.90;;;;;;5009671;28;20026;-79
2022/09/05 11:17:50;;;;;;;3.50;1.67;;;22.90;99.90;;;;;;5012660;28;20030;-78
2022/09/05 11:20:47;;;;;;;3.80;1.70;;;22.90;99.90;;;;;;5020070;28;20026;-85
2022/09/05 11:23:44;;;;;;;4.07;1.90;;;22.90;99.90;;;;;;5008669;28;20025;-84
2022/09/05 11:26:34;;;;;;;2.47;1.83;;;23.20;99.50;;;;;;4999528;28;20142;-78
2022/09/05 11:29:10;;;;;;;3.38;1.80;;;23.40;99.00;;;;;;5001480;28;20487;-84
2022/09/05 11:32:02;;;;;;;4.63;2.75;;;23.50;99.20;;;;;;5009792;28;20117;-85
2022/09/05 11:35:07;;;;;;;3.33;1.73;;;23.50;99.30;;;;;;5007950;28;20026;-86
2022/09/05 11:37:59;;;;;;;2.72;1.65;;;23.70;98.80;;;;;;5005228;28;20033;-79
2022/09/05 11:40:37;;;;;;;13.13;9.60;;;23.80;98.80;;;;;;5006390;28;20416;-83
2022/09/05 11:43:18;;;;;;;7.50;5.63;;;23.90;98.90;;;;;;5013372;28;20044;-82
2022/09/05 11:46:21;;;;;;;3.47;2.33;;;24.00;98.70;;;;;;5007832;28;20121;-79
2022/09/05 11:49:29;;;;;;;3.95;2.03;;;24.10;98.00;;;;;;5013464;28;20041;-81
2022/09/05 11:52:13;;;;;;;3.63;1.50;;;24.20;98.10;;;;;;5014187;28;20022;-83
2022/09/05 11:54:48;;;;;;;4.30;1.55;;;24.10;98.20;;;;;;5012471;28;20451;-81
2022/09/05 11:57:19;;;;;;;3.13;2.00;;;24.30;97.90;;;;;;5011419;28;20105;-80
2022/09/05 11:59:59;;;;;;;2.22;1.65;;;24.20;98.30;;;;;;5012917;28;20018;-83
2022/09/05 12:02:48;;;;;;;3.60;1.80;;;24.20;98.50;;;;;;5001711;28;20030;-82
2022/09/05 12:05:32;;;;;;;2.45;2.00;;;24.30;97.80;;;;;;5008587;28;20041;-87
2022/09/05 12:08:09;;;;;;;5.05;2.00;;;24.30;99.50;;;;;;5012309;28;20035;-87
2022/09/05 12:10:45;;;;;;;4.18;1.30;;;24.50;98.90;;;;;;5010526;28;20034;-83
2022/09/05 12:13:31;;;;;;;2.42;1.80;;;24.80;97.40;;;;;;5012465;28;20022;-80
2022/09/05 12:16:06;;;;;;;3.53;1.92;;;24.90;97.10;;;;;;5012759;28;20053;-82
2022/09/05 12:18:44;;;;;;;3.33;1.65;;;24.90;97.40;;;;;;5013375;28;20057;-83
2022/09/05 12:21:40;;;;;;;3.78;1.95;;;25.20;96.80;;;;;;4997666;28;20030;-82
2022/09/05 12:24:22;;;;;;;3.25;1.42;;;25.40;95.30;;;;;;5001398;28;20103;-83
2022/09/05 12:27:02;;;;;;;2.83;1.48;;;25.70;95.00;;;;;;4998061;28;20026;-83
2022/09/05 12:29:32;;;;;;;2.13;1.60;;;26.00;93.70;;;;;;4997230;28;20025;-83
2022/09/05 12:32:00;;;;;;;2.67;1.63;;;26.30;93.10;;;;;;5011130;28;20471;-84
2022/09/05 12:34:50;;;;;;;4.13;1.65;;;26.50;92.60;;;;;;5011846;28;20486;-85
2022/09/05 12:37:22;;;;;;;5.03;1.52;;;26.70;91.90;;;;;;5011154;28;20041;-84
2022/09/05 12:40:09;;;;;;;2.05;1.50;;;26.90;91.40;;;;;;5009195;28;20022;-83
2022/09/05 12:42:51;;;;;;;2.97;1.55;;;27.10;90.70;;;;;;5010070;28;20459;-81
2022/09/05 12:45:31;;;;;;;2.90;1.75;;;27.30;91.10;;;;;;4995734;28;20034;-88
2022/09/05 12:48:22;;;;;;;2.67;1.63;;;27.50;90.10;;;;;;5005512;28;20110;-85
2022/09/05 12:50:59;;;;;;;22.40;17.63;;;27.70;89.60;;;;;;4995932;28;20026;-83
2022/09/05 12:53:38;;;;;;;4.45;3.38;;;28.00;87.30;;;;;;4997473;28;20029;-86
2022/09/05 12:56:14;;;;;;;2.40;1.92;;;28.20;87.80;;;;;;5003376;28;20030;-85
2022/09/05 12:58:43;;;;;;;3.90;1.65;;;28.40;85.40;;;;;;5006646;28;20032;-83
2022/09/05 13:01:12;;;;;;;2.22;1.60;;;28.50;83.40;;;;;;5011248;28;20033;-81
2022/09/05 13:04:01;;;;;;;3.28;1.70;;;28.70;82.70;;;;;;5009598;28;20038;-82
2022/09/05 13:06:37;;;;;;;2.15;1.90;;;28.90;81.80;;;;;;5007360;28;20084;-83
2022/09/05 13:09:15;;;;;;;4.80;2.00;;;29.30;79.20;;;;;;5008970;28;20467;-79
2022/09/05 13:11:49;;;;;;;4.43;1.92;;;29.70;77.60;;;;;;4998344;28;20021;-86
2022/09/05 13:14:24;;;;;;;2.15;1.38;;;30.30;74.60;;;;;;5012398;28;20109;-85
2022/09/05 13:16:52;;;;;;;2.75;1.30;;;31.10;74.30;;;;;;4996624;28;20140;-92
2022/09/05 13:19:29;;;;;;;3.95;2.08;;;31.60;71.50;;;;;;5007941;28;20022;-86
2022/09/05 13:21:57;;;;;;;3.80;1.88;;;32.10;68.10;;;;;;5000859;28;20028;-88
2022/09/05 13:24:31;;;;;;;2.70;1.90;;;32.60;66.10;;;;;;4999841;28;20062;-85
2022/09/05 13:27:14;;;;;;;2.28;1.50;;;33.00;62.70;;;;;;5009891;28;20036;-83
2022/09/05 13:29:52;;;;;;;2.05;1.35;;;33.50;60.60;;;;;;4998630;28;20022;-84
2022/09/05 13:32:29;;;;;;;1.67;1.17;;;33.90;59.40;;;;;;5012849;28;20033;-88
2022/09/05 13:35:07;;;;;;;4.47;1.48;;;34.20;57.20;;;;;;4995597;28;20038;-84
2022/09/05 13:37:43;;;;;;;1.10;1.00;;;34.20;57.60;;;;;;5010248;28;20156;-80
2022/09/05 13:40:15;;;;;;;1.50;1.33;;;33.90;56.90;;;;;;5011942;28;20026;-83
2022/09/05 13:42:44;;;;;;;1.60;1.10;;;33.20;57.00;;;;;;5012464;28;20036;-82
2022/09/05 13:45:17;;;;;;;1.48;1.10;;;32.90;57.80;;;;;;5012227;28;20041;-83
2022/09/05 13:48:00;;;;;;;2.10;1.05;;;32.50;57.60;;;;;;5011980;28;20030;-82
2022/09/05 13:50:28;;;;;;;2.70;1.17;;;32.60;57.30;;;;;;5012703;28;20033;-83
2022/09/05 13:53:15;;;;;;;1.17;0.95;;;32.70;56.50;;;;;;5012116;28;20022;-82
2022/09/05 13:55:54;;;;;;;0.95;0.70;;;32.60;54.50;;;;;;5012289;28;20029;-82
2022/09/05 13:58:52;;;;;;;1.35;0.70;;;32.10;53.10;;;;;;5011513;28;20383;-82
2022/09/05 14:01:39;;;;;;;3.47;0.88;;;31.80;52.40;;;;;;4993748;28;20049;-81
2022/09/05 14:04:58;;;;;;;2.38;1.00;;;31.40;53.70;;;;;;5015718;28;20093;-82
2022/09/05 14:08:15;;;;;;;4.47;0.98;;;31.20;53.80;;;;;;4958929;28;20058;-82
2022/09/05 14:10:44;;;;;;;1.05;0.70;;;30.70;50.50;;;;;;4959269;28;20070;-81
2022/09/05 14:13:49;;;;;;;1.17;0.80;;;30.40;51.70;;;;;;4959086;28;20031;-82